Buoy 43533

sailwx.info

Track history (hours):
 
Tides and Currents Weather Stations Pressure Air Temp Water Temp Dewpoint Dewpoint Depression Visibility Wind Speed Wind Dir Waves Ship Positions

Drifting buoy 43533

Last reported at 2014-Jul-31 23:00 UTC. Time now 2014-Jul-31 23:47 UTC.
Position N 12°23' W 104°09'.

Length 24 m.

Type: Fishing. MMSI: 412466549.

Water temperature 29.2 ° C

Date/timePositionNaut miles runAvg speedWind from/ knotsBaromVisibWave heightAir tempDewpointWater temp
2014-Jul-31 23:00N 12°23' W 104°09'0 0.5 29.2
2014-Jul-31 22:00N 12°24' W 104°09'0 0.0 29.2
2014-Jul-31 21:00N 12°24' W 104°09'0 0.0 29.2
2014-Jul-31 20:00N 12°24' W 104°09'2 0.5 29.2
2014-Jul-31 17:00N 12°25' W 104°10'1 0.6 29.2
2014-Jul-31 16:00N 12°26' W 104°10'1 0.7 29.1
2014-Jul-31 15:00N 12°25' W 104°10'0 0.0 29.2
2014-Jul-31 13:00N 12°25' W 104°10'0 0.5 29.2
2014-Jul-31 12:00N 12°26' W 104°10'1 0.6 29.2
2014-Jul-31 11:00N 12°26' W 104°11'0 0.0 29.2
2014-Jul-31 10:00N 12°26' W 104°11'1 0.2 29.2
2014-Jul-31 04:00N 12°25' W 104°12'1 0.3 29.2
2014-Jul-31 01:00N 12°24' W 104°12'0 0.2 29.3
2014-Jul-30 23:00N 12°24' W 104°12'1 0.3 29.3
2014-Jul-30 20:00N 12°24' W 104°11'2 0.7 29.3
2014-Jul-30 17:00N 12°23' W 104°09'1 0.3 29.1
2014-Jul-30 15:00N 12°24' W 104°09'3 0.9 29.1
2014-Jul-30 12:00N 12°24' W 104°06'2 1.6 29.1
2014-Jul-30 11:00N 12°25' W 104°05'0 0.1 29.1
2014-Jul-30 10:00N 12°25' W 104°05'4 0.5 29.2
2014-Jul-30 03:00N 12°28' W 104°03'2 0.8 29.2
2014-Jul-30 00:00N 12°30' W 104°02'2 2.3 29.2
2014-Jul-29 23:00N 12°32' W 104°02'0 0.0 29.2
2014-Jul-29 22:00N 12°32' W 104°02'4 0.8 29.2
2014-Jul-29 17:00N 12°36' W 104°04'0 0.0 29.2
2014-Jul-29 16:00N 12°36' W 104°04'1 1.4 29.2
2014-Jul-29 15:00N 12°37' W 104°05'0 0.0 29.2
2014-Jul-29 13:00N 12°37' W 104°05'2 1.2 29.2
2014-Jul-29 11:00N 12°39' W 104°06'0 0.1 29.2
2014-Jul-29 10:00N 12°39' W 104°06'1 1.2 29.2
2014-Jul-29 09:00N 12°39' W 104°07'2 0.8 29.2
2014-Jul-29 07:00N 12°39' W 104°09'0 0.2 29.3
2014-Jul-29 05:00N 12°39' W 104°09'0 0.5 29.3
2014-Jul-29 04:00N 12°39' W 104°09'1 0.2 29.3
2014-Jul-28 23:00N 12°38' W 104°10'0 0.4 29.3
2014-Jul-28 22:00N 12°39' W 104°10'1 0.5 29.3
2014-Jul-28 20:00N 12°38' W 104°11'0 0.1 29.3
2014-Jul-28 17:00N 12°38' W 104°10'1 1.4 29.3
2014-Jul-28 16:00N 12°37' W 104°10'0 0.0 29.3
2014-Jul-28 15:00N 12°37' W 104°10'1 0.5 29.3
2014-Jul-28 13:00N 12°37' W 104°09'1 0.7 29.3
2014-Jul-28 12:00N 12°36' W 104°08'0 0.0 29.3
2014-Jul-28 10:00N 12°36' W 104°08'1 1.3 29.3
2014-Jul-28 09:00N 12°35' W 104°07'2 0.9 29.3
2014-Jul-28 07:00N 12°36' W 104°06'0 0.1 29.4
2014-Jul-28 04:00N 12°36' W 104°05'4 1.2 29.3
2014-Jul-28 01:00N 12°38' W 104°02'2 0.6 29.5
2014-Jul-27 21:00N 12°40' W 104°00'3 0.9 29.6
2014-Jul-27 17:00N 12°43' W 103°59'1 1.0 29.4
2014-Jul-27 16:00N 12°44' W 104°00'4 1.0 29.3
2014-Jul-27 12:00N 12°48' W 103°60'2 1.1 29.3
2014-Jul-27 10:00N 12°50' W 103°60'0 0.0 29.3
2014-Jul-27 09:00N 12°50' W 103°60'5 4.6 29.3
2014-Jul-27 08:00N 12°54' W 104°03'0 0.0 29.3
2014-Jul-27 05:00N 12°54' W 104°03'1 1.0 29.3
2014-Jul-27 04:00N 12°54' W 104°03'3 0.9 29.3
2014-Jul-27 01:00N 12°56' W 104°06'1 0.8 29.4
2014-Jul-27 00:00N 12°56' W 104°06'0 0.1 29.5
2014-Jul-26 23:00N 12°56' W 104°06'1 0.5 29.5
2014-Jul-26 22:00N 12°57' W 104°07'1 0.8 29.5
2014-Jul-26 21:00N 12°56' W 104°08'3 1.3 29.4
2014-Jul-26 19:00N 12°56' W 104°10'1 0.3 29.3
2014-Jul-26 17:00N 12°56' W 104°11'0 0.1 29.2
2014-Jul-26 16:00N 12°56' W 104°11'1 0.8 29.2
2014-Jul-26 15:00N 12°56' W 104°11'0 0.0 29.2
2014-Jul-26 13:00N 12°56' W 104°11'1 1.0 29.2
2014-Jul-26 12:00N 12°55' W 104°10'0 0.1 29.2
2014-Jul-26 10:00N 12°55' W 104°10'0 0.3 29.2
2014-Jul-26 09:00N 12°55' W 104°10'0 0.2 29.2
2014-Jul-26 08:00N 12°55' W 104°10'0 0.2 29.2
2014-Jul-26 07:00N 12°55' W 104°10'1 0.2 29.2
2014-Jul-26 00:00N 12°56' W 104°10'1 1.0 29.2
2014-Jul-25 23:00N 12°57' W 104°09'0 0.1 29.3
2014-Jul-25 22:00N 12°57' W 104°09'0 0.0 29.3
2014-Jul-25 21:00N 12°57' W 104°09'2 0.8 29.3
2014-Jul-25 19:00N 12°59' W 104°09'1 0.3 29.3
2014-Jul-25 17:00N 12°59' W 104°09'1 0.4 29.3
2014-Jul-25 15:00N 12°59' W 104°09'1 0.3 29.3
2014-Jul-25 13:00N 12°60' W 104°10'1 0.7 29.4
2014-Jul-25 12:00N 13°00' W 104°09'0 0.4 29.4
2014-Jul-25 11:00N 13°01' W 104°10'0 0.5 29.4
2014-Jul-25 10:00N 13°01' W 104°09'2 1.0 29.4
2014-Jul-25 08:00N 13°03' W 104°10'2 0.4 29.4
2014-Jul-25 04:00N 13°03' W 104°12'1 0.8 29.4
2014-Jul-25 03:00N 13°04' W 104°12'1 0.7 29.4
2014-Jul-25 02:00N 13°04' W 104°12'0 0.0 29.4
2014-Jul-25 01:00N 13°04' W 104°12'0 0.3 29.4
2014-Jul-25 00:00N 13°04' W 104°13'0 0.2 29.4
2014-Jul-24 22:00N 13°04' W 104°13'0 0.0 29.4
2014-Jul-24 21:00N 13°04' W 104°13'1 0.7 29.4
2014-Jul-24 19:00N 13°05' W 104°14'0 0.1 29.4
2014-Jul-24 17:00N 13°06' W 104°14'0 0.0 29.4
2014-Jul-24 16:00N 13°06' W 104°14'0 0.1 29.4
2014-Jul-24 13:00N 13°05' W 104°14'1 0.7 29.5
2014-Jul-24 11:00N 13°06' W 104°13'0 0.0 29.5
2014-Jul-24 10:00N 13°06' W 104°13'1 0.4 29.6
2014-Jul-24 08:00N 13°07' W 104°12'0 0.0 29.6
2014-Jul-24 05:00N 13°07' W 104°13'1 0.5 29.6
2014-Jul-24 03:00N 13°08' W 104°12'3 0.6 29.6
2014-Jul-23 22:00N 13°11' W 104°10'0 0.0 29.6
2014-Jul-23 21:00N 13°11' W 104°10'6 1.3 29.6
2014-Jul-23 16:00N 13°17' W 104°10'1 0.3 29.7
2014-Jul-23 13:00N 13°18' W 104°09'1 1.1 29.7
2014-Jul-23 12:00N 13°18' W 104°10'5 1.1 29.6
2014-Jul-23 08:00N 13°23' W 104°12'2 2.5 29.7
2014-Jul-23 07:00N 13°20' W 104°11'3 1.0 29.6
2014-Jul-23 04:00N 13°23' W 104°12'1 0.8 29.7
2014-Jul-23 03:00N 13°23' W 104°13'1 0.5 29.7
2014-Jul-23 00:00N 13°24' W 104°14'1 0.3 29.7
2014-Jul-22 21:00N 13°24' W 104°15'0 0.4 29.7
2014-Jul-22 20:00N 13°25' W 104°15'0 0.0 29.6
2014-Jul-22 17:00N 13°25' W 104°15'0 0.2 29.5
2014-Jul-22 16:00N 13°25' W 104°15'0 0.0 29.5
2014-Jul-22 15:00N 13°25' W 104°15'0 0.1 29.5
2014-Jul-22 13:00N 13°25' W 104°15'3 1.3 29.7
2014-Jul-22 11:00N 13°25' W 104°12'0 0.0 29.7
2014-Jul-22 10:00N 13°25' W 104°12'0 0.0 29.7
2014-Jul-22 09:00N 13°25' W 104°12'2 0.5 29.7
2014-Jul-22 05:00N 13°26' W 104°13'0 0.5 29.7
2014-Jul-22 04:00N 13°27' W 104°12'2 1.9 29.8
2014-Jul-22 03:00N 13°29' W 104°12'1 0.3 29.8
2014-Jul-21 23:00N 13°29' W 104°12'   29.9
Track history (hours):
 
Tides and Currents Weather Stations Pressure Air Temp Water Temp Dewpoint Dewpoint Depression Visibility Wind Speed Wind Dir Waves Ship Positions

Drifting buoy 43533

Last reported at 2014-Jul-31 23:00 UTC. Time now 2014-Jul-31 23:47 UTC.
Position N 12°23' W 104°09'.

Length 24 m.

Type: Fishing. MMSI: 412466549.

Water temperature 29.2 ° C

Date/timePositionNaut miles runAvg speedWind from/ knotsBaromVisibWave heightAir tempDewpointWater temp
2014-Jul-31 23:00N 12°23' W 104°09'0 0.5 29.2
2014-Jul-31 22:00N 12°24' W 104°09'0 0.0 29.2
2014-Jul-31 21:00N 12°24' W 104°09'0 0.0 29.2
2014-Jul-31 20:00N 12°24' W 104°09'2 0.5 29.2
2014-Jul-31 17:00N 12°25' W 104°10'1 0.6 29.2
2014-Jul-31 16:00N 12°26' W 104°10'1 0.7 29.1
2014-Jul-31 15:00N 12°25' W 104°10'0 0.0 29.2
2014-Jul-31 13:00N 12°25' W 104°10'0 0.5 29.2
2014-Jul-31 12:00N 12°26' W 104°10'1 0.6 29.2
2014-Jul-31 11:00N 12°26' W 104°11'0 0.0 29.2
2014-Jul-31 10:00N 12°26' W 104°11'1 0.2 29.2
2014-Jul-31 04:00N 12°25' W 104°12'1 0.3 29.2
2014-Jul-31 01:00N 12°24' W 104°12'0 0.2 29.3
2014-Jul-30 23:00N 12°24' W 104°12'1 0.3 29.3
2014-Jul-30 20:00N 12°24' W 104°11'2 0.7 29.3
2014-Jul-30 17:00N 12°23' W 104°09'1 0.3 29.1
2014-Jul-30 15:00N 12°24' W 104°09'3 0.9 29.1
2014-Jul-30 12:00N 12°24' W 104°06'2 1.6 29.1
2014-Jul-30 11:00N 12°25' W 104°05'0 0.1 29.1
2014-Jul-30 10:00N 12°25' W 104°05'4 0.5 29.2
2014-Jul-30 03:00N 12°28' W 104°03'2 0.8 29.2
2014-Jul-30 00:00N 12°30' W 104°02'2 2.3 29.2
2014-Jul-29 23:00N 12°32' W 104°02'0 0.0 29.2
2014-Jul-29 22:00N 12°32' W 104°02'4 0.8 29.2
2014-Jul-29 17:00N 12°36' W 104°04'0 0.0 29.2
2014-Jul-29 16:00N 12°36' W 104°04'1 1.4 29.2
2014-Jul-29 15:00N 12°37' W 104°05'0 0.0 29.2
2014-Jul-29 13:00N 12°37' W 104°05'2 1.2 29.2
2014-Jul-29 11:00N 12°39' W 104°06'0 0.1 29.2
2014-Jul-29 10:00N 12°39' W 104°06'1 1.2 29.2
2014-Jul-29 09:00N 12°39' W 104°07'2 0.8 29.2
2014-Jul-29 07:00N 12°39' W 104°09'0 0.2 29.3
2014-Jul-29 05:00N 12°39' W 104°09'0 0.5 29.3
2014-Jul-29 04:00N 12°39' W 104°09'1 0.2 29.3
2014-Jul-28 23:00N 12°38' W 104°10'0 0.4 29.3
2014-Jul-28 22:00N 12°39' W 104°10'1 0.5 29.3
2014-Jul-28 20:00N 12°38' W 104°11'0 0.1 29.3
2014-Jul-28 17:00N 12°38' W 104°10'1 1.4 29.3
2014-Jul-28 16:00N 12°37' W 104°10'0 0.0 29.3
2014-Jul-28 15:00N 12°37' W 104°10'1 0.5 29.3
2014-Jul-28 13:00N 12°37' W 104°09'1 0.7 29.3
2014-Jul-28 12:00N 12°36' W 104°08'0 0.0 29.3
2014-Jul-28 10:00N 12°36' W 104°08'1 1.3 29.3
2014-Jul-28 09:00N 12°35' W 104°07'2 0.9 29.3
2014-Jul-28 07:00N 12°36' W 104°06'0 0.1 29.4
2014-Jul-28 04:00N 12°36' W 104°05'4 1.2 29.3
2014-Jul-28 01:00N 12°38' W 104°02'2 0.6 29.5
2014-Jul-27 21:00N 12°40' W 104°00'3 0.9 29.6
2014-Jul-27 17:00N 12°43' W 103°59'1 1.0 29.4
2014-Jul-27 16:00N 12°44' W 104°00'4 1.0 29.3
2014-Jul-27 12:00N 12°48' W 103°60'2 1.1 29.3
2014-Jul-27 10:00N 12°50' W 103°60'0 0.0 29.3
2014-Jul-27 09:00N 12°50' W 103°60'5 4.6 29.3
2014-Jul-27 08:00N 12°54' W 104°03'0 0.0 29.3
2014-Jul-27 05:00N 12°54' W 104°03'1 1.0 29.3
2014-Jul-27 04:00N 12°54' W 104°03'3 0.9 29.3
2014-Jul-27 01:00N 12°56' W 104°06'1 0.8 29.4
2014-Jul-27 00:00N 12°56' W 104°06'0 0.1 29.5
2014-Jul-26 23:00N 12°56' W 104°06'1 0.5 29.5
2014-Jul-26 22:00N 12°57' W 104°07'1 0.8 29.5
2014-Jul-26 21:00N 12°56' W 104°08'3 1.3 29.4
2014-Jul-26 19:00N 12°56' W 104°10'1 0.3 29.3
2014-Jul-26 17:00N 12°56' W 104°11'0 0.1 29.2
2014-Jul-26 16:00N 12°56' W 104°11'1 0.8 29.2
2014-Jul-26 15:00N 12°56' W 104°11'0 0.0 29.2
2014-Jul-26 13:00N 12°56' W 104°11'1 1.0 29.2
2014-Jul-26 12:00N 12°55' W 104°10'0 0.1 29.2
2014-Jul-26 10:00N 12°55' W 104°10'0 0.3 29.2
2014-Jul-26 09:00N 12°55' W 104°10'0 0.2 29.2
2014-Jul-26 08:00N 12°55' W 104°10'0 0.2 29.2
2014-Jul-26 07:00N 12°55' W 104°10'1 0.2 29.2
2014-Jul-26 00:00N 12°56' W 104°10'1 1.0 29.2
2014-Jul-25 23:00N 12°57' W 104°09'0 0.1 29.3
2014-Jul-25 22:00N 12°57' W 104°09'0 0.0 29.3
2014-Jul-25 21:00N 12°57' W 104°09'2 0.8 29.3
2014-Jul-25 19:00N 12°59' W 104°09'1 0.3 29.3
2014-Jul-25 17:00N 12°59' W 104°09'1 0.4 29.3
2014-Jul-25 15:00N 12°59' W 104°09'1 0.3 29.3
2014-Jul-25 13:00N 12°60' W 104°10'1 0.7 29.4
2014-Jul-25 12:00N 13°00' W 104°09'0 0.4 29.4
2014-Jul-25 11:00N 13°01' W 104°10'0 0.5 29.4
2014-Jul-25 10:00N 13°01' W 104°09'2 1.0 29.4
2014-Jul-25 08:00N 13°03' W 104°10'2 0.4 29.4
2014-Jul-25 04:00N 13°03' W 104°12'1 0.8 29.4
2014-Jul-25 03:00N 13°04' W 104°12'1 0.7 29.4
2014-Jul-25 02:00N 13°04' W 104°12'0 0.0 29.4
2014-Jul-25 01:00N 13°04' W 104°12'0 0.3 29.4
2014-Jul-25 00:00N 13°04' W 104°13'0 0.2 29.4
2014-Jul-24 22:00N 13°04' W 104°13'0 0.0 29.4
2014-Jul-24 21:00N 13°04' W 104°13'1 0.7 29.4
2014-Jul-24 19:00N 13°05' W 104°14'0 0.1 29.4
2014-Jul-24 17:00N 13°06' W 104°14'0 0.0 29.4
2014-Jul-24 16:00N 13°06' W 104°14'0 0.1 29.4
2014-Jul-24 13:00N 13°05' W 104°14'1 0.7 29.5
2014-Jul-24 11:00N 13°06' W 104°13'0 0.0 29.5
2014-Jul-24 10:00N 13°06' W 104°13'1 0.4 29.6
2014-Jul-24 08:00N 13°07' W 104°12'0 0.0 29.6
2014-Jul-24 05:00N 13°07' W 104°13'1 0.5 29.6
2014-Jul-24 03:00N 13°08' W 104°12'3 0.6 29.6
2014-Jul-23 22:00N 13°11' W 104°10'0 0.0 29.6
2014-Jul-23 21:00N 13°11' W 104°10'6 1.3 29.6
2014-Jul-23 16:00N 13°17' W 104°10'1 0.3 29.7
2014-Jul-23 13:00N 13°18' W 104°09'1 1.1 29.7
2014-Jul-23 12:00N 13°18' W 104°10'5 1.1 29.6
2014-Jul-23 08:00N 13°23' W 104°12'2 2.5 29.7
2014-Jul-23 07:00N 13°20' W 104°11'3 1.0 29.6
2014-Jul-23 04:00N 13°23' W 104°12'1 0.8 29.7
2014-Jul-23 03:00N 13°23' W 104°13'1 0.5 29.7
2014-Jul-23 00:00N 13°24' W 104°14'1 0.3 29.7
2014-Jul-22 21:00N 13°24' W 104°15'0 0.4 29.7
2014-Jul-22 20:00N 13°25' W 104°15'0 0.0 29.6
2014-Jul-22 17:00N 13°25' W 104°15'0 0.2 29.5
2014-Jul-22 16:00N 13°25' W 104°15'0 0.0 29.5
2014-Jul-22 15:00N 13°25' W 104°15'0 0.1 29.5
2014-Jul-22 13:00N 13°25' W 104°15'3 1.3 29.7
2014-Jul-22 11:00N 13°25' W 104°12'0 0.0 29.7
2014-Jul-22 10:00N 13°25' W 104°12'0 0.0 29.7
2014-Jul-22 09:00N 13°25' W 104°12'2 0.5 29.7
2014-Jul-22 05:00N 13°26' W 104°13'0 0.5 29.7
2014-Jul-22 04:00N 13°27' W 104°12'2 1.9 29.8
2014-Jul-22 03:00N 13°29' W 104°12'1 0.3 29.8
2014-Jul-21 23:00N 13°29' W 104°12'   29.9

Dump ship's entire track history